EST,Max TemperatureF,Mean TemperatureF,Min TemperatureF,Max Dew PointF,MeanDew PointF,Min DewpointF,Max Humidity, Mean Humidity, Min Humidity, Max Sea Level PressureIn, Mean Sea Level PressureIn, Min Sea Level PressureIn, Max VisibilityMiles, Mean VisibilityMiles, Min VisibilityMiles, Max Wind SpeedMPH, Mean Wind SpeedMPH, Max Gust SpeedMPH,PrecipitationIn, CloudCover, Events, WindDirDegrees
2014-1-1,51,36,21,28,23,18,93,71,26,30.33,30.22,30.08,10,10,10,7,4,,0.00,0,,50
2014-1-2,37,28,19,36,28,10,100,85,68,30.06,29.86,29.67,10,9,3,18,5,30,0.00,6,Rain-Snow,308
2014-1-3,21,16,12,10,6,1,85,64,46,30.36,30.27,30.00,10,10,2,14,8,,0.00,3,Rain-Snow,283
2014-1-4,48,32,15,25,13,5,86,59,20,30.31,30.23,30.13,10,10,10,8,2,,0.00,0,,64
2014-1-5,55,40,26,43,34,23,100,79,58,30.13,29.92,29.59,10,10,10,10,2,,0.00,2,,124
2014-1-6,30,16,1,28,5,-11,93,69,44,30.28,30.05,29.81,10,8,1,20,12,28,0.00,7,Rain-Snow,275
2014-1-7,12,5,-2,0,-7,-15,78,60,48,30.48,30.39,30.28,10,10,9,13,7,23,0.00,1,Snow,265
2014-1-8,37,20,3,19,9,0,86,70,33,30.53,30.46,30.42,10,10,10,8,1,,0.00,0,,99
2014-1-9,51,35,19,30,20,9,93,63,19,30.49,30.41,30.31,10,10,10,7,2,,0.00,2,,69
2014-1-10,57,48,39,50,43,32,100,90,70,30.34,30.17,29.96,10,9,0,8,4,,0.00,6,Rain,84
2014-1-11,62,52,42,54,45,30,100,82,54,29.95,29.74,29.60,10,10,4,16,4,24,0.00,5,Rain,266
2014-1-12,50,40,30,34,29,25,87,68,37,30.13,30.05,29.88,10,10,10,15,6,,0.00,2,,267
2014-1-13,46,35,24,39,30,25,100,75,53,30.10,29.99,29.86,10,10,4,10,2,,0.00,2,Rain,83
2014-1-14,50,39,28,41,36,28,100,86,50,29.96,29.88,29.76,10,9,5,15,5,,0.00,4,Rain,261
2014-1-15,35,30,26,32,27,18,100,86,60,30.02,29.95,29.91,10,8,2,13,3,,0.00,6,Rain-Snow,254
2014-1-16,37,27,17,21,16,9,93,64,33,30.03,29.95,29.85,10,10,10,9,3,,0.00,4,,265
2014-1-17,46,35,24,27,22,16,86,64,31,29.97,29.88,29.76,10,10,4,22,4,32,0.00,6,Rain-Snow,270
2014-1-18,30,24,17,18,12,7,86,63,47,30.07,29.97,29.87,10,10,4,15,8,,0.00,6,Rain-Snow,269
2014-1-19,42,32,23,28,23,16,100,72,46,30.00,29.94,29.86,10,10,2,16,3,,0.00,5,Rain-Snow,271
2014-1-20,53,35,17,27,22,16,100,69,33,29.96,29.90,29.82,10,10,10,15,3,,0.00,0,,259
2014-1-21,42,28,15,32,23,5,100,78,57,29.93,29.75,29.64,10,9,1,15,4,22,0.00,7,Rain-Snow,298
2014-1-22,21,14,8,5,0,-4,67,51,33,30.07,30.01,29.94,10,10,8,10,6,,0.00,6,Snow,267
2014-1-23,24,15,6,9,2,-8,63,50,32,30.47,30.24,30.07,10,10,10,17,9,22,0.00,5,,276
2014-1-24,21,10,-2,1,-6,-11,78,53,24,30.55,30.40,30.10,10,10,10,10,2,,0.00,0,Snow,326
2014-1-25,30,18,5,19,11,0,93,70,54,30.09,29.82,29.71,10,9,0,17,3,,0.00,6,Fog-Snow,258
2014-1-26,50,28,6,28,17,1,93,63,38,29.92,29.84,29.75,10,10,10,15,5,,0.00,0,Snow,267
2014-1-27,42,30,17,34,21,-4,100,68,36,30.18,29.94,29.78,10,10,10,13,3,,0.00,6,Rain,291
2014-1-28,17,14,12,12,6,-6,86,68,35,30.24,30.19,30.14,10,7,1,10,4,,0.00,7,Snow,255
2014-1-29,19,8,-2,9,0,-9,85,65,39,30.33,30.27,30.18,10,10,8,9,4,,0.00,2,Snow,247
2014-1-30,37,18,-2,16,3,-8,85,59,24,30.30,30.20,30.07,10,10,8,9,1,,0.00,0,,139
2014-1-31,42,28,15,21,15,9,86,61,25,30.21,30.16,30.13,10,10,10,9,1,,0.00,0,,22